sensor_id;sensor_type;location;lat;lon;timestamp;temperature;humidity
24436;DHT22;12616;52.470;13.436;2023-07-09T00:00:53;21.10;99.90
24436;DHT22;12616;52.470;13.436;2023-07-09T00:03:22;21.00;99.90
24436;DHT22;12616;52.470;13.436;2023-07-09T00:08:28;20.80;99.90
24436;DHT22;12616;52.470;13.436;2023-07-09T00:11:01;21.10;99.90
24436;DHT22;12616;52.470;13.436;2023-07-09T00:13:28;20.70;99.90
24436;DHT22;12616;52.470;13.436;2023-07-09T00:15:58;20.80;99.90
24436;DHT22;12616;52.470;13.436;2023-07-09T00:18:30;20.80;99.90
24436;DHT22;12616;52.470;13.436;2023-07-09T00:23:25;20.80;99.90
24436;DHT22;12616;52.470;13.436;2023-07-09T00:36:04;20.80;99.90
24436;DHT22;12616;52.470;13.436;2023-07-09T00:38:48;20.70;99.90
24436;DHT22;12616;52.470;13.436;2023-07-09T00:41:22;20.70;99.90
24436;DHT22;12616;52.470;13.436;2023-07-09T00:44:31;20.70;99.90
24436;DHT22;12616;52.470;13.436;2023-07-09T00:47:25;20.70;99.90
24436;DHT22;12616;52.470;13.436;2023-07-09T00:50:29;20.70;99.90
24436;DHT22;12616;52.470;13.436;2023-07-09T00:53:17;20.60;99.90
24436;DHT22;12616;52.470;13.436;2023-07-09T00:56:01;20.70;99.90
24436;DHT22;12616;52.470;13.436;2023-07-09T01:01:25;20.60;99.90
24436;DHT22;12616;52.470;13.436;2023-07-09T01:04:00;20.60;99.90
24436;DHT22;12616;52.470;13.436;2023-07-09T01:06:55;20.60;99.90
24436;DHT22;12616;52.470;13.436;2023-07-09T01:09:48;20.70;99.90
24436;DHT22;12616;52.470;13.436;2023-07-09T01:12:25;20.50;99.90
24436;DHT22;12616;52.470;13.436;2023-07-09T01:15:10;20.40;99.90
24436;DHT22;12616;52.470;13.436;2023-07-09T01:17:50;20.40;99.90
24436;DHT22;12616;52.470;13.436;2023-07-09T01:22:59;20.30;99.90
24436;DHT22;12616;52.470;13.436;2023-07-09T01:25:50;20.20;99.90
24436;DHT22;12616;52.470;13.436;2023-07-09T01:28:25;20.20;99.90
24436;DHT22;12616;52.470;13.436;2023-07-09T01:30:57;20.20;99.90
24436;DHT22;12616;52.470;13.436;2023-07-09T01:38:34;20.00;99.90
24436;DHT22;12616;52.470;13.436;2023-07-09T01:41:08;20.00;99.90
24436;DHT22;12616;52.470;13.436;2023-07-09T01:46:17;20.00;99.90
24436;DHT22;12616;52.470;13.436;2023-07-09T01:48:49;19.90;99.90
24436;DHT22;12616;52.470;13.436;2023-07-09T01:53:57;19.60;99.90
24436;DHT22;12616;52.470;13.436;2023-07-09T01:56:35;19.70;99.90
24436;DHT22;12616;52.470;13.436;2023-07-09T02:07:01;19.50;99.90
24436;DHT22;12616;52.470;13.436;2023-07-09T02:09:49;19.70;1.00
24436;DHT22;12616;52.470;13.436;2023-07-09T02:12:39;19.40;99.90
24436;DHT22;12616;52.470;13.436;2023-07-09T02:15:20;19.30;99.90
24436;DHT22;12616;52.470;13.436;2023-07-09T02:18:04;19.40;99.90
24436;DHT22;12616;52.470;13.436;2023-07-09T02:23:30;19.40;99.90
24436;DHT22;12616;52.470;13.436;2023-07-09T02:26:06;19.10;1.00
24436;DHT22;12616;52.470;13.436;2023-07-09T02:31:18;19.20;1.00
24436;DHT22;12616;52.470;13.436;2023-07-09T02:34:01;19.20;99.90
24436;DHT22;12616;52.470;13.436;2023-07-09T02:42:07;19.00;99.90
24436;DHT22;12616;52.470;13.436;2023-07-09T02:47:14;19.00;99.90
24436;DHT22;12616;52.470;13.436;2023-07-09T02:55:11;18.80;99.90
24436;DHT22;12616;52.470;13.436;2023-07-09T02:57:48;18.80;99.90
24436;DHT22;12616;52.470;13.436;2023-07-09T03:00:25;18.80;99.90
24436;DHT22;12616;52.470;13.436;2023-07-09T03:05:40;18.70;99.90
24436;DHT22;12616;52.470;13.436;2023-07-09T03:11:31;18.70;99.90
24436;DHT22;12616;52.470;13.436;2023-07-09T03:14:49;18.60;99.90
24436;DHT22;12616;52.470;13.436;2023-07-09T03:23:14;18.60;99.90
24436;DHT22;12616;52.470;13.436;2023-07-09T03:26:20;18.60;99.90
24436;DHT22;12616;52.470;13.436;2023-07-09T03:33:04;18.60;99.90
24436;DHT22;12616;52.470;13.436;2023-07-09T03:36:33;18.60;99.90
24436;DHT22;12616;52.470;13.436;2023-07-09T03:40:00;18.70;99.90
24436;DHT22;12616;52.470;13.436;2023-07-09T03:43:17;18.80;99.90
24436;DHT22;12616;52.470;13.436;2023-07-09T03:49:19;18.80;99.90
24436;DHT22;12616;52.470;13.436;2023-07-09T03:52:05;18.80;99.90
24436;DHT22;12616;52.470;13.436;2023-07-09T03:55:00;19.10;99.90
24436;DHT22;12616;52.470;13.436;2023-07-09T03:57:39;19.20;99.90
24436;DHT22;12616;52.470;13.436;2023-07-09T04:00:13;18.10;99.90
24436;DHT22;12616;52.470;13.436;2023-07-09T04:05:29;19.00;99.90
24436;DHT22;12616;52.470;13.436;2023-07-09T04:20:28;17.60;99.90
24436;DHT22;12616;52.470;13.436;2023-07-09T04:27:55;19.60;99.90
24436;DHT22;12616;52.470;13.436;2023-07-09T04:30:28;19.70;99.90
24436;DHT22;12616;52.470;13.436;2023-07-09T04:35:28;19.80;99.90
24436;DHT22;12616;52.470;13.436;2023-07-09T04:45:32;20.00;99.90
24436;DHT22;12616;52.470;13.436;2023-07-09T04:48:27;20.10;99.90
24436;DHT22;12616;52.470;13.436;2023-07-09T04:51:00;20.10;99.90
24436;DHT22;12616;52.470;13.436;2023-07-09T04:53:46;20.10;99.90
24436;DHT22;12616;52.470;13.436;2023-07-09T04:57:04;19.80;99.90
24436;DHT22;12616;52.470;13.436;2023-07-09T04:59:40;20.20;99.90
24436;DHT22;12616;52.470;13.436;2023-07-09T05:05:25;20.50;1.00
24436;DHT22;12616;52.470;13.436;2023-07-09T05:11:48;20.20;1.00
24436;DHT22;12616;52.470;13.436;2023-07-09T05:14:30;19.40;99.90
24436;DHT22;12616;52.470;13.436;2023-07-09T05:19:43;20.50;99.90
24436;DHT22;12616;52.470;13.436;2023-07-09T05:25:12;20.60;99.90
24436;DHT22;12616;52.470;13.436;2023-07-09T05:27:56;20.70;99.90
24436;DHT22;12616;52.470;13.436;2023-07-09T05:30:28;20.80;99.90
24436;DHT22;12616;52.470;13.436;2023-07-09T05:36:52;20.90;99.90
24436;DHT22;12616;52.470;13.436;2023-07-09T05:40:08;21.00;99.90
24436;DHT22;12616;52.470;13.436;2023-07-09T05:46:00;21.20;99.90
24436;DHT22;12616;52.470;13.436;2023-07-09T05:52:25;21.40;99.90
24436;DHT22;12616;52.470;13.436;2023-07-09T05:58:50;21.40;1.00
24436;DHT22;12616;52.470;13.436;2023-07-09T06:08:15;21.60;99.90
24436;DHT22;12616;52.470;13.436;2023-07-09T06:10:51;21.80;99.90
24436;DHT22;12616;52.470;13.436;2023-07-09T06:13:18;21.90;99.90
24436;DHT22;12616;52.470;13.436;2023-07-09T06:15:46;21.90;99.90
24436;DHT22;12616;52.470;13.436;2023-07-09T06:18:13;21.90;99.90
24436;DHT22;12616;52.470;13.436;2023-07-09T06:20:40;22.40;1.00
24436;DHT22;12616;52.470;13.436;2023-07-09T06:23:07;22.00;99.90
24436;DHT22;12616;52.470;13.436;2023-07-09T06:25:38;22.10;1.00
24436;DHT22;12616;52.470;13.436;2023-07-09T06:30:45;22.30;99.90
24436;DHT22;12616;52.470;13.436;2023-07-09T06:33:15;22.30;99.90
24436;DHT22;12616;52.470;13.436;2023-07-09T06:35:47;22.50;99.90
24436;DHT22;12616;52.470;13.436;2023-07-09T06:38:14;22.50;99.90
24436;DHT22;12616;52.470;13.436;2023-07-09T06:40:43;22.50;99.90
24436;DHT22;12616;52.470;13.436;2023-07-09T06:45:37;22.70;1.00
24436;DHT22;12616;52.470;13.436;2023-07-09T06:48:05;22.80;99.90
24436;DHT22;12616;52.470;13.436;2023-07-09T06:50:33;22.90;99.90
24436;DHT22;12616;52.470;13.436;2023-07-09T06:53:00;23.00;99.90
24436;DHT22;12616;52.470;13.436;2023-07-09T06:55:27;23.00;99.90
24436;DHT22;12616;52.470;13.436;2023-07-09T06:57:56;23.10;99.90
24436;DHT22;12616;52.470;13.436;2023-07-09T07:00:23;23.20;99.90
24436;DHT22;12616;52.470;13.436;2023-07-09T07:05:19;23.30;99.90
24436;DHT22;12616;52.470;13.436;2023-07-09T07:07:46;23.40;99.90
24436;DHT22;12616;52.470;13.436;2023-07-09T07:12:42;23.50;99.90
24436;DHT22;12616;52.470;13.436;2023-07-09T07:15:12;23.50;99.90
24436;DHT22;12616;52.470;13.436;2023-07-09T07:20:08;23.70;99.90
24436;DHT22;12616;52.470;13.436;2023-07-09T07:22:36;23.80;99.90
24436;DHT22;12616;52.470;13.436;2023-07-09T07:25:04;23.80;99.90
24436;DHT22;12616;52.470;13.436;2023-07-09T07:27:31;23.90;99.90
24436;DHT22;12616;52.470;13.436;2023-07-09T07:29:58;24.30;1.00
24436;DHT22;12616;52.470;13.436;2023-07-09T07:32:27;24.00;99.90
24436;DHT22;12616;52.470;13.436;2023-07-09T07:34:54;24.10;99.90
24436;DHT22;12616;52.470;13.436;2023-07-09T07:37:21;24.20;99.90
24436;DHT22;12616;52.470;13.436;2023-07-09T07:39:48;24.30;99.90
24436;DHT22;12616;52.470;13.436;2023-07-09T07:42:15;24.30;99.90
24436;DHT22;12616;52.470;13.436;2023-07-09T07:44:42;24.40;99.90
24436;DHT22;12616;52.470;13.436;2023-07-09T07:47:09;24.50;99.90
24436;DHT22;12616;52.470;13.436;2023-07-09T07:49:39;24.50;99.90
24436;DHT22;12616;52.470;13.436;2023-07-09T07:52:07;24.80;99.90
24436;DHT22;12616;52.470;13.436;2023-07-09T07:54:36;24.60;99.90
24436;DHT22;12616;52.470;13.436;2023-07-09T07:59:30;24.80;1.00
24436;DHT22;12616;52.470;13.436;2023-07-09T08:02:00;24.70;99.90
24436;DHT22;12616;52.470;13.436;2023-07-09T08:04:27;24.80;99.90
24436;DHT22;12616;52.470;13.436;2023-07-09T08:06:55;24.90;99.90
24436;DHT22;12616;52.470;13.436;2023-07-09T08:09:22;25.00;99.90
24436;DHT22;12616;52.470;13.436;2023-07-09T08:11:49;25.00;99.90
24436;DHT22;12616;52.470;13.436;2023-07-09T08:14:16;25.10;99.90
24436;DHT22;12616;52.470;13.436;2023-07-09T08:19:11;25.30;1.00
24436;DHT22;12616;52.470;13.436;2023-07-09T08:21:38;25.30;99.90
24436;DHT22;12616;52.470;13.436;2023-07-09T08:24:06;25.40;99.90
24436;DHT22;12616;52.470;13.436;2023-07-09T08:26:33;25.50;99.90
24436;DHT22;12616;52.470;13.436;2023-07-09T08:31:31;25.60;99.90
24436;DHT22;12616;52.470;13.436;2023-07-09T08:33:58;25.40;1.00
24436;DHT22;12616;52.470;13.436;2023-07-09T08:36:25;25.70;99.90
24436;DHT22;12616;52.470;13.436;2023-07-09T08:41:28;25.80;99.90
24436;DHT22;12616;52.470;13.436;2023-07-09T08:44:07;25.80;99.90
24436;DHT22;12616;52.470;13.436;2023-07-09T08:46:54;25.90;99.90
24436;DHT22;12616;52.470;13.436;2023-07-09T08:49:35;25.90;99.90
24436;DHT22;12616;52.470;13.436;2023-07-09T08:52:11;26.00;99.90
24436;DHT22;12616;52.470;13.436;2023-07-09T08:54:41;26.10;99.90
24436;DHT22;12616;52.470;13.436;2023-07-09T08:57:17;26.20;99.90
24436;DHT22;12616;52.470;13.436;2023-07-09T08:59:46;26.20;99.90
24436;DHT22;12616;52.470;13.436;2023-07-09T09:02:20;26.30;99.90
24436;DHT22;12616;52.470;13.436;2023-07-09T09:04:52;26.30;99.90
24436;DHT22;12616;52.470;13.436;2023-07-09T09:07:28;26.40;99.90
24436;DHT22;12616;52.470;13.436;2023-07-09T09:10:00;26.90;1.00
24436;DHT22;12616;52.470;13.436;2023-07-09T09:12:33;26.60;99.90
24436;DHT22;12616;52.470;13.436;2023-07-09T09:15:08;26.70;99.90
24436;DHT22;12616;52.470;13.436;2023-07-09T09:17:38;26.70;99.90
24436;DHT22;12616;52.470;13.436;2023-07-09T09:20:09;26.80;99.90
24436;DHT22;12616;52.470;13.436;2023-07-09T09:22:43;26.90;99.90
24436;DHT22;12616;52.470;13.436;2023-07-09T09:25:18;26.90;99.90
24436;DHT22;12616;52.470;13.436;2023-07-09T09:27:49;26.80;1.00
24436;DHT22;12616;52.470;13.436;2023-07-09T09:30:20;27.00;99.90
24436;DHT22;12616;52.470;13.436;2023-07-09T09:32:52;27.40;1.00
24436;DHT22;12616;52.470;13.436;2023-07-09T09:35:24;27.20;99.90
24436;DHT22;12616;52.470;13.436;2023-07-09T09:37:53;27.20;99.90
24436;DHT22;12616;52.470;13.436;2023-07-09T09:42:50;27.20;99.90
24436;DHT22;12616;52.470;13.436;2023-07-09T09:45:20;27.20;99.90
24436;DHT22;12616;52.470;13.436;2023-07-09T09:47:48;27.30;99.90
24436;DHT22;12616;52.470;13.436;2023-07-09T09:50:17;27.10;1.00
24436;DHT22;12616;52.470;13.436;2023-07-09T09:52:45;27.40;99.90
24436;DHT22;12616;52.470;13.436;2023-07-09T09:55:17;27.50;99.90
24436;DHT22;12616;52.470;13.436;2023-07-09T09:57:50;27.50;99.90
24436;DHT22;12616;52.470;13.436;2023-07-09T10:00:21;27.60;99.90
24436;DHT22;12616;52.470;13.436;2023-07-09T10:05:21;27.70;99.90
24436;DHT22;12616;52.470;13.436;2023-07-09T10:07:59;27.80;99.90
24436;DHT22;12616;52.470;13.436;2023-07-09T10:10:30;27.80;99.90
24436;DHT22;12616;52.470;13.436;2023-07-09T10:13:05;27.80;99.90
24436;DHT22;12616;52.470;13.436;2023-07-09T10:15:39;27.80;99.90
24436;DHT22;12616;52.470;13.436;2023-07-09T10:18:17;28.90;99.90
24436;DHT22;12616;52.470;13.436;2023-07-09T10:20:55;27.90;99.90
24436;DHT22;12616;52.470;13.436;2023-07-09T10:23:29;28.20;1.00
24436;DHT22;12616;52.470;13.436;2023-07-09T10:26:09;27.90;99.90
24436;DHT22;12616;52.470;13.436;2023-07-09T10:29:01;28.00;99.90
24436;DHT22;12616;52.470;13.436;2023-07-09T10:31:38;28.10;99.90
24436;DHT22;12616;52.470;13.436;2023-07-09T10:34:19;28.10;99.90
24436;DHT22;12616;52.470;13.436;2023-07-09T10:37:06;28.10;99.90
24436;DHT22;12616;52.470;13.436;2023-07-09T10:39:48;27.80;1.00
24436;DHT22;12616;52.470;13.436;2023-07-09T10:42:21;28.20;99.90
24436;DHT22;12616;52.470;13.436;2023-07-09T10:44:55;28.30;99.90
24436;DHT22;12616;52.470;13.436;2023-07-09T10:47:29;28.30;99.90
24436;DHT22;12616;52.470;13.436;2023-07-09T10:49:57;28.30;99.90
24436;DHT22;12616;52.470;13.436;2023-07-09T10:52:28;28.30;99.90
24436;DHT22;12616;52.470;13.436;2023-07-09T10:55:02;28.40;99.90
24436;DHT22;12616;52.470;13.436;2023-07-09T10:57:38;28.40;99.90
24436;DHT22;12616;52.470;13.436;2023-07-09T11:00:12;28.50;99.90
24436;DHT22;12616;52.470;13.436;2023-07-09T11:02:42;28.50;99.90
24436;DHT22;12616;52.470;13.436;2023-07-09T11:05:10;28.50;99.90
24436;DHT22;12616;52.470;13.436;2023-07-09T11:07:43;28.50;99.90
24436;DHT22;12616;52.470;13.436;2023-07-09T11:10:18;28.60;99.90
24436;DHT22;12616;52.470;13.436;2023-07-09T11:12:54;28.60;99.90
24436;DHT22;12616;52.470;13.436;2023-07-09T11:15:26;28.80;99.90
24436;DHT22;12616;52.470;13.436;2023-07-09T11:17:57;28.70;99.90
24436;DHT22;12616;52.470;13.436;2023-07-09T11:20:32;28.70;99.90
24436;DHT22;12616;52.470;13.436;2023-07-09T11:23:02;28.80;1.00
24436;DHT22;12616;52.470;13.436;2023-07-09T11:25:43;28.40;1.00
24436;DHT22;12616;52.470;13.436;2023-07-09T11:28:11;28.80;99.90
24436;DHT22;12616;52.470;13.436;2023-07-09T11:30:51;28.80;99.90
24436;DHT22;12616;52.470;13.436;2023-07-09T11:33:20;28.80;1.00
24436;DHT22;12616;52.470;13.436;2023-07-09T11:35:54;29.00;99.90
24436;DHT22;12616;52.470;13.436;2023-07-09T11:38:26;29.00;99.90
24436;DHT22;12616;52.470;13.436;2023-07-09T11:40:54;29.00;99.90
24436;DHT22;12616;52.470;13.436;2023-07-09T11:43:31;29.00;99.90
24436;DHT22;12616;52.470;13.436;2023-07-09T11:46:07;29.10;99.90
24436;DHT22;12616;52.470;13.436;2023-07-09T11:48:37;29.20;1.00
24436;DHT22;12616;52.470;13.436;2023-07-09T11:51:10;29.00;99.90
24436;DHT22;12616;52.470;13.436;2023-07-09T11:53:43;29.10;99.90
24436;DHT22;12616;52.470;13.436;2023-07-09T11:58:48;29.10;99.90
24436;DHT22;12616;52.470;13.436;2023-07-09T12:01:19;29.10;99.90
24436;DHT22;12616;52.470;13.436;2023-07-09T12:03:48;29.20;99.90
24436;DHT22;12616;52.470;13.436;2023-07-09T12:06:19;29.20;99.90
24436;DHT22;12616;52.470;13.436;2023-07-09T12:08:48;29.40;99.90
24436;DHT22;12616;52.470;13.436;2023-07-09T12:11:21;29.10;1.00
24436;DHT22;12616;52.470;13.436;2023-07-09T12:13:48;29.50;99.90
24436;DHT22;12616;52.470;13.436;2023-07-09T12:16:25;29.70;1.00
24436;DHT22;12616;52.470;13.436;2023-07-09T12:18:52;29.50;99.90
24436;DHT22;12616;52.470;13.436;2023-07-09T12:21:20;29.40;99.90
24436;DHT22;12616;52.470;13.436;2023-07-09T12:23:47;29.40;99.90
24436;DHT22;12616;52.470;13.436;2023-07-09T12:26:17;29.40;99.90
24436;DHT22;12616;52.470;13.436;2023-07-09T12:28:56;29.40;99.90
24436;DHT22;12616;52.470;13.436;2023-07-09T12:31:30;29.40;99.90
24436;DHT22;12616;52.470;13.436;2023-07-09T12:33:59;29.50;99.90
24436;DHT22;12616;52.470;13.436;2023-07-09T12:36:27;29.50;99.90
24436;DHT22;12616;52.470;13.436;2023-07-09T12:38:57;29.40;99.90
24436;DHT22;12616;52.470;13.436;2023-07-09T12:41:29;29.50;99.90
24436;DHT22;12616;52.470;13.436;2023-07-09T12:43:59;29.40;1.00
24436;DHT22;12616;52.470;13.436;2023-07-09T12:46:28;29.60;99.90
24436;DHT22;12616;52.470;13.436;2023-07-09T12:48:55;29.70;99.90
24436;DHT22;12616;52.470;13.436;2023-07-09T12:51:24;29.70;99.90
24436;DHT22;12616;52.470;13.436;2023-07-09T12:54:01;29.70;99.90
24436;DHT22;12616;52.470;13.436;2023-07-09T12:56:29;29.60;1.00
24436;DHT22;12616;52.470;13.436;2023-07-09T12:58:57;29.80;99.90
24436;DHT22;12616;52.470;13.436;2023-07-09T13:01:24;29.80;99.90
24436;DHT22;12616;52.470;13.436;2023-07-09T13:03:56;29.70;99.90
24436;DHT22;12616;52.470;13.436;2023-07-09T13:06:28;29.70;99.90
24436;DHT22;12616;52.470;13.436;2023-07-09T13:08:57;29.80;99.90
24436;DHT22;12616;52.470;13.436;2023-07-09T13:11:26;29.80;99.90
24436;DHT22;12616;52.470;13.436;2023-07-09T13:13:59;29.80;99.90
24436;DHT22;12616;52.470;13.436;2023-07-09T13:16:30;29.80;99.90
24436;DHT22;12616;52.470;13.436;2023-07-09T13:19:05;29.80;99.90
24436;DHT22;12616;52.470;13.436;2023-07-09T13:21:32;29.80;99.90
24436;DHT22;12616;52.470;13.436;2023-07-09T13:23:59;29.80;99.90
24436;DHT22;12616;52.470;13.436;2023-07-09T13:26:26;29.80;99.90
24436;DHT22;12616;52.470;13.436;2023-07-09T13:28:53;29.80;99.90
24436;DHT22;12616;52.470;13.436;2023-07-09T13:31:20;29.90;99.90
24436;DHT22;12616;52.470;13.436;2023-07-09T13:33:50;29.90;99.90
24436;DHT22;12616;52.470;13.436;2023-07-09T13:36:20;30.20;1.00
24436;DHT22;12616;52.470;13.436;2023-07-09T13:38:47;30.00;99.90
24436;DHT22;12616;52.470;13.436;2023-07-09T13:41:15;30.00;99.90
24436;DHT22;12616;52.470;13.436;2023-07-09T13:43:45;30.00;99.90
24436;DHT22;12616;52.470;13.436;2023-07-09T13:46:12;29.70;1.00
24436;DHT22;12616;52.470;13.436;2023-07-09T13:48:41;30.10;99.90
24436;DHT22;12616;52.470;13.436;2023-07-09T13:51:14;30.10;99.90
24436;DHT22;12616;52.470;13.436;2023-07-09T13:53:43;30.20;1.00
24436;DHT22;12616;52.470;13.436;2023-07-09T13:56:10;30.10;99.90
24436;DHT22;12616;52.470;13.436;2023-07-09T13:58:37;30.20;99.90
24436;DHT22;12616;52.470;13.436;2023-07-09T14:01:10;30.20;99.90
24436;DHT22;12616;52.470;13.436;2023-07-09T14:03:38;30.10;99.90
24436;DHT22;12616;52.470;13.436;2023-07-09T14:06:08;30.40;1.00
24436;DHT22;12616;52.470;13.436;2023-07-09T14:08:35;30.20;99.90
24436;DHT22;12616;52.470;13.436;2023-07-09T14:11:07;30.20;99.90
24436;DHT22;12616;52.470;13.436;2023-07-09T14:13:34;30.10;1.00
24436;DHT22;12616;52.470;13.436;2023-07-09T14:16:01;30.20;99.90
24436;DHT22;12616;52.470;13.436;2023-07-09T14:18:28;30.30;99.90
24436;DHT22;12616;52.470;13.436;2023-07-09T14:20:56;30.20;99.90
24436;DHT22;12616;52.470;13.436;2023-07-09T14:23:22;30.30;99.90
24436;DHT22;12616;52.470;13.436;2023-07-09T14:25:49;30.30;99.90
24436;DHT22;12616;52.470;13.436;2023-07-09T14:28:19;30.30;99.90
24436;DHT22;12616;52.470;13.436;2023-07-09T14:30:49;30.30;99.90
24436;DHT22;12616;52.470;13.436;2023-07-09T14:33:17;30.30;99.90
24436;DHT22;12616;52.470;13.436;2023-07-09T14:35:45;30.30;99.90
24436;DHT22;12616;52.470;13.436;2023-07-09T14:38:16;30.30;99.90
24436;DHT22;12616;52.470;13.436;2023-07-09T14:40:43;30.30;99.90
24436;DHT22;12616;52.470;13.436;2023-07-09T14:45:40;30.30;99.90
24436;DHT22;12616;52.470;13.436;2023-07-09T14:48:11;30.30;99.90
24436;DHT22;12616;52.470;13.436;2023-07-09T14:50:39;30.20;99.90
24436;DHT22;12616;52.470;13.436;2023-07-09T14:53:13;30.30;99.90
24436;DHT22;12616;52.470;13.436;2023-07-09T14:55:41;30.30;99.90
24436;DHT22;12616;52.470;13.436;2023-07-09T14:58:14;30.20;99.90
24436;DHT22;12616;52.470;13.436;2023-07-09T15:00:43;30.20;99.90
24436;DHT22;12616;52.470;13.436;2023-07-09T15:03:18;30.20;99.90
24436;DHT22;12616;52.470;13.436;2023-07-09T15:05:45;30.20;99.90
24436;DHT22;12616;52.470;13.436;2023-07-09T15:08:14;30.20;99.90
24436;DHT22;12616;52.470;13.436;2023-07-09T15:10:41;30.20;99.90
24436;DHT22;12616;52.470;13.436;2023-07-09T15:13:16;30.30;99.90
24436;DHT22;12616;52.470;13.436;2023-07-09T15:15:44;30.30;99.90
24436;DHT22;12616;52.470;13.436;2023-07-09T15:18:13;30.40;99.90
24436;DHT22;12616;52.470;13.436;2023-07-09T15:20:43;30.40;99.90
24436;DHT22;12616;52.470;13.436;2023-07-09T15:23:12;30.30;99.90
24436;DHT22;12616;52.470;13.436;2023-07-09T15:28:09;30.20;99.90
24436;DHT22;12616;52.470;13.436;2023-07-09T15:30:36;30.10;99.90
24436;DHT22;12616;52.470;13.436;2023-07-09T15:33:08;30.00;99.90
24436;DHT22;12616;52.470;13.436;2023-07-09T15:35:36;30.00;99.90
24436;DHT22;12616;52.470;13.436;2023-07-09T15:38:20;29.70;1.00
24436;DHT22;12616;52.470;13.436;2023-07-09T15:40:48;30.00;99.90
24436;DHT22;12616;52.470;13.436;2023-07-09T15:43:15;30.10;99.90
24436;DHT22;12616;52.470;13.436;2023-07-09T15:45:44;30.10;99.90
24436;DHT22;12616;52.470;13.436;2023-07-09T15:48:21;30.10;99.90
24436;DHT22;12616;52.470;13.436;2023-07-09T15:50:47;30.10;99.90
24436;DHT22;12616;52.470;13.436;2023-07-09T15:53:14;30.10;99.90
24436;DHT22;12616;52.470;13.436;2023-07-09T15:55:41;30.00;99.90
24436;DHT22;12616;52.470;13.436;2023-07-09T15:58:14;30.00;99.90
24436;DHT22;12616;52.470;13.436;2023-07-09T16:00:42;30.00;99.90
24436;DHT22;12616;52.470;13.436;2023-07-09T16:03:11;30.00;99.90
24436;DHT22;12616;52.470;13.436;2023-07-09T16:05:40;29.90;99.90
24436;DHT22;12616;52.470;13.436;2023-07-09T16:08:07;29.90;99.90
24436;DHT22;12616;52.470;13.436;2023-07-09T16:10:34;29.80;99.90
24436;DHT22;12616;52.470;13.436;2023-07-09T16:13:01;29.80;99.90
24436;DHT22;12616;52.470;13.436;2023-07-09T16:15:28;29.90;99.90
24436;DHT22;12616;52.470;13.436;2023-07-09T16:20:25;29.90;99.90
24436;DHT22;12616;52.470;13.436;2023-07-09T16:22:56;30.20;1.00
24436;DHT22;12616;52.470;13.436;2023-07-09T16:25:35;29.90;99.90
24436;DHT22;12616;52.470;13.436;2023-07-09T16:28:03;29.90;99.90
24436;DHT22;12616;52.470;13.436;2023-07-09T16:30:30;29.80;99.90
24436;DHT22;12616;52.470;13.436;2023-07-09T16:32:58;29.80;99.90
24436;DHT22;12616;52.470;13.436;2023-07-09T16:35:28;28.90;99.90
24436;DHT22;12616;52.470;13.436;2023-07-09T16:37:57;30.70;99.90
24436;DHT22;12616;52.470;13.436;2023-07-09T16:40:26;29.70;99.90
24436;DHT22;12616;52.470;13.436;2023-07-09T16:42:55;29.70;99.90
24436;DHT22;12616;52.470;13.436;2023-07-09T16:45:23;29.60;99.90
24436;DHT22;12616;52.470;13.436;2023-07-09T16:50:19;29.50;99.90
24436;DHT22;12616;52.470;13.436;2023-07-09T16:52:47;29.50;99.90
24436;DHT22;12616;52.470;13.436;2023-07-09T16:55:18;29.40;99.90
24436;DHT22;12616;52.470;13.436;2023-07-09T16:57:48;29.40;99.90
24436;DHT22;12616;52.470;13.436;2023-07-09T17:00:22;29.40;1.00
24436;DHT22;12616;52.470;13.436;2023-07-09T17:02:50;29.30;99.90
24436;DHT22;12616;52.470;13.436;2023-07-09T17:05:17;29.30;99.90
24436;DHT22;12616;52.470;13.436;2023-07-09T17:07:44;29.20;99.90
24436;DHT22;12616;52.470;13.436;2023-07-09T17:10:11;29.20;99.90
24436;DHT22;12616;52.470;13.436;2023-07-09T17:12:41;29.20;99.90
24436;DHT22;12616;52.470;13.436;2023-07-09T17:15:19;29.10;99.90
24436;DHT22;12616;52.470;13.436;2023-07-09T17:17:47;29.10;99.90
24436;DHT22;12616;52.470;13.436;2023-07-09T17:20:15;29.00;99.90
24436;DHT22;12616;52.470;13.436;2023-07-09T17:22:44;29.00;99.90
24436;DHT22;12616;52.470;13.436;2023-07-09T17:25:32;28.90;99.90
24436;DHT22;12616;52.470;13.436;2023-07-09T17:28:08;28.90;99.90
24436;DHT22;12616;52.470;13.436;2023-07-09T17:30:36;28.90;99.90
24436;DHT22;12616;52.470;13.436;2023-07-09T17:33:02;28.90;99.90
24436;DHT22;12616;52.470;13.436;2023-07-09T17:35:30;28.90;99.90
24436;DHT22;12616;52.470;13.436;2023-07-09T17:40:27;28.80;1.00
24436;DHT22;12616;52.470;13.436;2023-07-09T17:42:56;28.70;99.90
24436;DHT22;12616;52.470;13.436;2023-07-09T17:45:25;28.60;99.90
24436;DHT22;12616;52.470;13.436;2023-07-09T17:47:53;28.60;99.90
24436;DHT22;12616;52.470;13.436;2023-07-09T17:50:22;28.60;99.90
24436;DHT22;12616;52.470;13.436;2023-07-09T17:52:51;28.60;99.90
24436;DHT22;12616;52.470;13.436;2023-07-09T17:57:48;28.50;99.90
24436;DHT22;12616;52.470;13.436;2023-07-09T18:00:20;28.50;99.90
24436;DHT22;12616;52.470;13.436;2023-07-09T18:02:53;28.50;99.90
24436;DHT22;12616;52.470;13.436;2023-07-09T18:05:24;28.50;99.90
24436;DHT22;12616;52.470;13.436;2023-07-09T18:07:54;28.50;99.90
24436;DHT22;12616;52.470;13.436;2023-07-09T18:10:23;28.40;99.90
24436;DHT22;12616;52.470;13.436;2023-07-09T18:15:22;28.30;99.90
24436;DHT22;12616;52.470;13.436;2023-07-09T18:17:52;28.60;99.90
24436;DHT22;12616;52.470;13.436;2023-07-09T18:20:23;28.20;99.90
24436;DHT22;12616;52.470;13.436;2023-07-09T18:22:51;27.90;1.00
24436;DHT22;12616;52.470;13.436;2023-07-09T18:25:20;28.00;1.00
24436;DHT22;12616;52.470;13.436;2023-07-09T18:30:38;28.00;99.90
24436;DHT22;12616;52.470;13.436;2023-07-09T18:33:13;28.20;1.00
24436;DHT22;12616;52.470;13.436;2023-07-09T18:38:11;27.90;99.90
24436;DHT22;12616;52.470;13.436;2023-07-09T18:40:42;27.70;99.90
24436;DHT22;12616;52.470;13.436;2023-07-09T18:43:16;27.70;99.90
24436;DHT22;12616;52.470;13.436;2023-07-09T18:48:15;27.60;99.90
24436;DHT22;12616;52.470;13.436;2023-07-09T18:50:44;27.60;99.90
24436;DHT22;12616;52.470;13.436;2023-07-09T18:53:13;26.90;1.00
24436;DHT22;12616;52.470;13.436;2023-07-09T18:58:13;27.30;99.90
24436;DHT22;12616;52.470;13.436;2023-07-09T19:03:21;27.30;99.90
24436;DHT22;12616;52.470;13.436;2023-07-09T19:05:52;27.10;99.90
24436;DHT22;12616;52.470;13.436;2023-07-09T19:08:23;27.00;99.90
24436;DHT22;12616;52.470;13.436;2023-07-09T19:10:55;27.10;99.90
24436;DHT22;12616;52.470;13.436;2023-07-09T19:15:57;26.90;1.00